createdAt,value
2023-06-17T00:01:57.872Z,40.40
2023-06-17T00:04:24.395Z,40.40
2023-06-17T00:06:50.931Z,40.40
2023-06-17T00:09:17.457Z,40.50
2023-06-17T00:11:43.996Z,40.50
2023-06-17T00:14:10.546Z,40.50
2023-06-17T00:16:37.069Z,40.40
2023-06-17T00:19:03.607Z,40.60
2023-06-17T00:21:30.124Z,40.70
2023-06-17T00:23:56.677Z,40.50
2023-06-17T00:26:23.226Z,40.60
2023-06-17T00:28:49.785Z,40.60
2023-06-17T00:31:16.310Z,40.50
2023-06-17T00:33:42.875Z,40.50
2023-06-17T00:36:09.404Z,40.50
2023-06-17T00:38:35.943Z,40.60
2023-06-17T00:41:02.468Z,40.20
2023-06-17T00:43:29.015Z,40.50
2023-06-17T00:45:55.528Z,40.60
2023-06-17T00:48:22.081Z,40.30
2023-06-17T00:50:48.609Z,40.30
2023-06-17T00:53:15.146Z,40.30
2023-06-17T00:55:41.697Z,40.10
2023-06-17T00:58:08.240Z,40.20
2023-06-17T01:00:34.752Z,40.00
2023-06-17T01:03:01.388Z,40.40
2023-06-17T01:05:27.986Z,40.40
2023-06-17T01:07:54.523Z,40.20
2023-06-17T01:10:21.447Z,40.30
2023-06-17T01:12:48.220Z,40.30
2023-06-17T01:15:14.758Z,40.40
2023-06-17T01:17:41.301Z,40.30
2023-06-17T01:20:07.979Z,40.20
2023-06-17T01:22:34.524Z,40.20
2023-06-17T01:25:01.039Z,40.20
2023-06-17T01:27:27.538Z,40.20
2023-06-17T01:29:54.049Z,40.30
2023-06-17T01:32:20.637Z,40.20
2023-06-17T01:34:47.250Z,40.30
2023-06-17T01:37:15.935Z,40.40
2023-06-17T01:39:42.465Z,40.20
2023-06-17T01:42:08.997Z,40.20
2023-06-17T01:44:35.543Z,40.20
2023-06-17T01:47:02.053Z,40.10
2023-06-17T01:49:28.596Z,40.30
2023-06-17T01:51:55.109Z,40.20
2023-06-17T01:54:21.636Z,40.10
2023-06-17T01:56:48.154Z,40.00
2023-06-17T01:59:14.703Z,40.20
2023-06-17T02:01:41.216Z,39.90
2023-06-17T02:04:07.865Z,40.10
2023-06-17T02:06:34.423Z,40.10
2023-06-17T02:09:00.975Z,40.10
2023-06-17T02:11:27.513Z,40.00
2023-06-17T02:13:54.055Z,40.00
2023-06-17T02:16:20.601Z,40.00
2023-06-17T02:18:47.227Z,40.20
2023-06-17T02:21:13.768Z,39.90
2023-06-17T02:23:40.305Z,39.90
2023-06-17T02:26:06.829Z,40.20
2023-06-17T02:28:33.371Z,40.10
2023-06-17T02:30:59.929Z,39.80
2023-06-17T02:33:27.985Z,39.80
2023-06-17T02:35:54.511Z,39.80
2023-06-17T02:38:22.000Z,39.90
2023-06-17T02:40:48.549Z,40.00
2023-06-17T02:43:15.075Z,39.80
2023-06-17T02:45:41.616Z,39.90
2023-06-17T02:48:08.136Z,39.70
2023-06-17T02:50:34.714Z,39.80
2023-06-17T02:53:01.228Z,40.00
2023-06-17T02:55:27.779Z,40.20
2023-06-17T02:57:54.313Z,40.00
2023-06-17T03:00:20.991Z,39.90
2023-06-17T03:02:47.828Z,39.90
2023-06-17T03:05:14.596Z,40.00
2023-06-17T03:07:41.125Z,39.80
2023-06-17T03:10:07.654Z,39.50
2023-06-17T03:12:34.170Z,39.80
2023-06-17T03:15:00.681Z,39.60
2023-06-17T03:17:27.223Z,39.60
2023-06-17T03:19:53.762Z,40.10
2023-06-17T03:22:20.266Z,39.80
2023-06-17T03:24:46.804Z,39.80
2023-06-17T03:27:13.349Z,39.50
2023-06-17T03:29:39.876Z,39.80
2023-06-17T03:32:06.448Z,39.70
2023-06-17T03:34:32.977Z,39.60
2023-06-17T03:36:59.516Z,39.50
2023-06-17T03:39:28.068Z,39.50
2023-06-17T03:41:54.617Z,39.30
2023-06-17T03:44:21.147Z,39.70
2023-06-17T03:46:47.714Z,39.40
2023-06-17T03:49:14.238Z,39.70
2023-06-17T03:51:40.760Z,39.30
2023-06-17T03:54:07.286Z,39.20
2023-06-17T03:56:33.806Z,39.50
2023-06-17T03:59:00.351Z,39.50
2023-06-17T04:01:28.072Z,39.50
2023-06-17T04:03:54.708Z,39.50
2023-06-17T04:06:21.286Z,39.40
2023-06-17T04:08:47.795Z,39.30
2023-06-17T04:11:14.320Z,39.30
2023-06-17T04:13:40.828Z,39.40
2023-06-17T04:16:10.085Z,39.50
2023-06-17T04:18:36.603Z,39.30
2023-06-17T04:21:04.078Z,39.30
2023-06-17T04:23:30.615Z,39.10
2023-06-17T04:25:57.141Z,39.40
2023-06-17T04:28:28.076Z,39.40
2023-06-17T04:30:58.142Z,39.30
2023-06-17T04:33:28.093Z,39.30
2023-06-17T04:35:54.592Z,39.20
2023-06-17T04:38:21.105Z,39.20
2023-06-17T04:40:47.631Z,39.20
2023-06-17T04:43:14.182Z,39.30
2023-06-17T04:45:40.722Z,39.10
2023-06-17T04:48:07.696Z,39.40
2023-06-17T04:50:34.297Z,39.30
2023-06-17T04:53:00.860Z,39.40
2023-06-17T04:55:27.369Z,39.10
2023-06-17T04:57:53.882Z,39.20
2023-06-17T05:00:22.488Z,39.20
2023-06-17T05:02:49.314Z,39.30
2023-06-17T05:05:15.846Z,39.30
2023-06-17T05:07:42.358Z,39.20
2023-06-17T05:10:08.887Z,39.30
2023-06-17T05:12:40.114Z,39.30
2023-06-17T05:15:06.665Z,39.30
2023-06-17T05:17:33.287Z,39.50
2023-06-17T05:19:59.872Z,39.50
2023-06-17T05:22:28.087Z,39.70
2023-06-17T05:24:54.666Z,39.50
2023-06-17T05:27:21.197Z,39.40
2023-06-17T05:29:47.729Z,39.70
2023-06-17T05:32:14.303Z,39.70
2023-06-17T05:34:40.836Z,39.70
2023-06-17T05:37:07.358Z,39.80
2023-06-17T05:39:33.893Z,39.90
2023-06-17T05:42:00.400Z,39.80
2023-06-17T05:44:26.938Z,39.80
2023-06-17T05:46:53.454Z,39.80
2023-06-17T05:49:20.000Z,39.70
2023-06-17T05:51:46.536Z,39.90
2023-06-17T05:54:13.064Z,39.90
2023-06-17T05:56:39.603Z,39.90
2023-06-17T05:59:06.138Z,39.80
2023-06-17T06:01:32.764Z,40.00
2023-06-17T06:03:59.348Z,40.00
2023-06-17T06:06:25.946Z,39.90
2023-06-17T06:08:52.467Z,39.90
2023-06-17T06:11:19.034Z,40.00
2023-06-17T06:13:45.558Z,40.00
2023-06-17T06:16:12.126Z,40.10
2023-06-17T06:18:38.688Z,40.10
2023-06-17T06:21:05.231Z,40.10
2023-06-17T06:23:31.758Z,40.10
2023-06-17T06:25:58.289Z,40.10
2023-06-17T06:28:24.813Z,40.30
2023-06-17T06:30:51.386Z,40.20
2023-06-17T06:33:17.918Z,40.10
2023-06-17T06:35:44.487Z,40.20
2023-06-17T06:38:11.036Z,40.30
2023-06-17T06:40:37.563Z,40.40
2023-06-17T06:43:04.075Z,40.50
2023-06-17T06:45:30.639Z,40.40
2023-06-17T06:47:57.199Z,40.40
2023-06-17T06:50:24.014Z,40.40
2023-06-17T06:52:50.613Z,40.50
2023-06-17T06:55:17.163Z,40.50
2023-06-17T06:57:43.667Z,40.50
2023-06-17T07:00:10.310Z,40.50
2023-06-17T07:02:36.920Z,40.50
2023-06-17T07:05:03.499Z,40.50
2023-06-17T07:07:30.072Z,40.40
2023-06-17T07:09:56.593Z,40.40
2023-06-17T07:12:23.108Z,40.40
2023-06-17T07:14:49.647Z,40.40
2023-06-17T07:17:16.161Z,40.40
2023-06-17T07:19:42.683Z,40.30
2023-06-17T07:22:09.225Z,40.30
2023-06-17T07:24:35.831Z,40.30
2023-06-17T07:27:02.455Z,40.20
2023-06-17T07:29:28.984Z,40.20
2023-06-17T07:31:55.540Z,40.20
2023-06-17T07:34:22.121Z,40.30
2023-06-17T07:36:48.666Z,40.00
2023-06-17T07:39:15.201Z,40.00
2023-06-17T07:41:41.731Z,40.10
2023-06-17T07:44:08.267Z,40.00
2023-06-17T07:46:34.827Z,40.00
2023-06-17T07:49:01.426Z,40.00
2023-06-17T07:51:27.973Z,40.00
2023-06-17T07:53:54.485Z,40.00
2023-06-17T07:56:21.031Z,40.00
2023-06-17T07:58:47.566Z,40.00
2023-06-17T08:01:14.139Z,40.10
2023-06-17T08:03:40.750Z,40.10
2023-06-17T08:06:07.318Z,40.00
2023-06-17T08:08:33.840Z,40.20
2023-06-17T08:11:00.369Z,40.30
2023-06-17T08:13:26.882Z,40.40
2023-06-17T08:15:53.437Z,40.50
2023-06-17T08:18:19.976Z,40.50
2023-06-17T08:20:46.573Z,40.50
2023-06-17T08:23:13.081Z,40.60
2023-06-17T08:25:39.607Z,40.60
2023-06-17T08:28:06.136Z,40.60
2023-06-17T08:30:32.702Z,40.40
2023-06-17T08:32:59.246Z,40.60
2023-06-17T08:35:25.810Z,40.60
2023-06-17T08:37:52.318Z,40.60
2023-06-17T08:40:19.098Z,40.70
2023-06-17T08:42:45.860Z,40.60
2023-06-17T08:45:12.382Z,40.60
2023-06-17T08:47:38.965Z,40.60
2023-06-17T08:50:05.548Z,40.60
2023-06-17T08:52:32.062Z,40.60
2023-06-17T08:54:58.594Z,40.60
2023-06-17T08:57:25.126Z,40.60
2023-06-17T08:59:51.654Z,40.60
2023-06-17T09:02:18.225Z,40.60
2023-06-17T09:04:44.790Z,40.70
2023-06-17T09:07:11.360Z,40.70
2023-06-17T09:09:37.883Z,40.70
2023-06-17T09:12:04.459Z,40.70
2023-06-17T09:14:30.982Z,40.70
2023-06-17T09:16:57.540Z,40.70
2023-06-17T09:19:24.087Z,40.70
2023-06-17T09:21:52.404Z,40.70
2023-06-17T09:24:19.045Z,40.60
2023-06-17T09:26:46.340Z,40.60
2023-06-17T09:29:16.546Z,40.70
2023-06-17T09:31:43.082Z,40.60
2023-06-17T09:34:09.603Z,40.60
2023-06-17T09:36:36.155Z,40.60
2023-06-17T09:39:02.666Z,40.60
2023-06-17T09:41:29.226Z,40.60
2023-06-17T09:43:55.813Z,40.60
2023-06-17T09:46:22.417Z,40.50
2023-06-17T09:48:48.967Z,40.50
2023-06-17T09:51:16.360Z,40.50
2023-06-17T09:53:42.866Z,40.40
2023-06-17T09:56:09.400Z,40.60
2023-06-17T09:58:35.978Z,40.40
2023-06-17T10:01:04.379Z,40.40
2023-06-17T10:03:31.070Z,40.40
2023-06-17T10:05:58.382Z,40.30
2023-06-17T10:08:24.912Z,40.30
2023-06-17T10:10:51.457Z,40.20
2023-06-17T10:13:18.008Z,40.20
2023-06-17T10:15:44.552Z,40.10
2023-06-17T10:18:16.383Z,40.10
2023-06-17T10:20:42.920Z,40.00
2023-06-17T10:23:09.468Z,40.00
2023-06-17T10:25:36.005Z,40.00
2023-06-17T10:28:02.605Z,40.00
2023-06-17T10:30:29.126Z,40.00
2023-06-17T10:32:55.706Z,40.00
2023-06-17T10:35:22.295Z,40.00
2023-06-17T10:37:48.850Z,40.00
2023-06-17T10:40:15.361Z,39.90
2023-06-17T10:42:41.916Z,39.90
2023-06-17T10:45:08.431Z,39.80
2023-06-17T10:47:35.029Z,39.70
2023-06-17T10:50:01.571Z,39.60
2023-06-17T10:52:28.102Z,39.60
2023-06-17T10:54:54.678Z,39.60
2023-06-17T10:57:21.245Z,39.50
2023-06-17T10:59:47.764Z,39.50
2023-06-17T11:02:14.329Z,39.50
2023-06-17T11:04:40.882Z,39.50
2023-06-17T11:07:07.399Z,39.60
2023-06-17T11:09:33.928Z,39.60
2023-06-17T11:12:00.450Z,39.50
2023-06-17T11:14:26.988Z,39.50
2023-06-17T11:16:53.604Z,39.40
2023-06-17T11:19:20.230Z,39.50
2023-06-17T11:21:46.723Z,39.40
2023-06-17T11:24:13.321Z,39.40
2023-06-17T11:26:39.883Z,39.40
2023-06-17T11:29:06.403Z,39.30
2023-06-17T11:31:32.921Z,39.20
2023-06-17T11:33:59.459Z,39.20
2023-06-17T11:36:25.984Z,39.20
2023-06-17T11:38:58.456Z,39.20
2023-06-17T11:41:24.964Z,39.10
2023-06-17T11:43:51.492Z,39.10
2023-06-17T11:46:18.056Z,39.00
2023-06-17T11:48:46.447Z,39.10
2023-06-17T11:51:12.964Z,38.90
2023-06-17T11:53:39.528Z,38.80
2023-06-17T11:56:06.042Z,38.90
2023-06-17T11:58:32.568Z,38.80
2023-06-17T12:00:59.072Z,38.80
2023-06-17T12:03:25.596Z,38.80
2023-06-17T12:05:52.141Z,38.80
2023-06-17T12:08:18.672Z,38.80
2023-06-17T12:10:45.227Z,38.80
2023-06-17T12:13:11.747Z,38.70
2023-06-17T12:15:38.549Z,38.60
2023-06-17T12:18:05.425Z,38.60
2023-06-17T12:20:32.017Z,38.70
2023-06-17T12:22:58.561Z,38.70
2023-06-17T12:25:25.386Z,38.60
2023-06-17T12:27:52.076Z,38.50
2023-06-17T12:30:18.610Z,38.60
2023-06-17T12:32:45.230Z,38.50
2023-06-17T12:35:11.831Z,38.50
2023-06-17T12:37:38.411Z,38.50
2023-06-17T12:40:04.949Z,38.50
2023-06-17T12:42:31.511Z,38.40
2023-06-17T12:44:58.520Z,38.40
2023-06-17T12:47:25.145Z,38.50
2023-06-17T12:49:51.663Z,38.40
2023-06-17T12:52:18.182Z,38.40
2023-06-17T12:54:44.728Z,38.40
2023-06-17T12:57:12.427Z,38.40
2023-06-17T12:59:40.001Z,38.40
2023-06-17T13:02:10.540Z,38.40
2023-06-17T13:04:37.088Z,38.30
2023-06-17T13:07:03.594Z,38.30
2023-06-17T13:09:30.116Z,38.20
2023-06-17T13:11:56.663Z,38.30
2023-06-17T13:14:23.216Z,38.30
2023-06-17T13:16:52.500Z,38.30
2023-06-17T13:19:22.540Z,38.30
2023-06-17T13:21:49.069Z,38.40
2023-06-17T13:24:15.632Z,38.30
2023-06-17T13:26:42.182Z,38.30
2023-06-17T13:29:08.753Z,38.20
2023-06-17T13:31:35.310Z,38.30
2023-06-17T13:34:01.832Z,38.20
2023-06-17T13:36:28.557Z,38.20
2023-06-17T13:38:55.096Z,38.10
2023-06-17T13:41:21.676Z,38.20
2023-06-17T13:43:48.210Z,38.20
2023-06-17T13:46:14.776Z,38.10
2023-06-17T13:48:41.640Z,38.10
2023-06-17T13:51:08.154Z,38.10
2023-06-17T13:53:34.750Z,38.10
2023-06-17T13:56:01.276Z,38.10
2023-06-17T13:58:27.822Z,38.00
2023-06-17T14:00:54.338Z,38.10
2023-06-17T14:03:23.016Z,38.00
2023-06-17T14:05:49.580Z,38.00
2023-06-17T14:08:16.213Z,38.00
2023-06-17T14:10:42.796Z,38.00
2023-06-17T14:13:09.348Z,37.90
2023-06-17T14:15:35.888Z,37.90
2023-06-17T14:18:02.497Z,37.90
2023-06-17T14:20:29.082Z,37.90
2023-06-17T14:22:55.628Z,37.90
2023-06-17T14:25:22.137Z,37.80
2023-06-17T14:27:48.667Z,37.80
2023-06-17T14:30:15.198Z,37.80
2023-06-17T14:32:41.764Z,37.90
2023-06-17T14:35:08.288Z,37.80
2023-06-17T14:37:34.834Z,37.80
2023-06-17T14:40:01.334Z,37.90
2023-06-17T14:42:27.888Z,37.70
2023-06-17T14:44:54.395Z,37.70
2023-06-17T14:47:22.020Z,37.80
2023-06-17T14:49:48.701Z,37.70
2023-06-17T14:52:15.238Z,37.70
2023-06-17T14:54:41.751Z,37.70
2023-06-17T14:57:08.278Z,37.80
2023-06-17T14:59:34.800Z,37.70
2023-06-17T15:02:01.462Z,37.70
2023-06-17T15:04:28.103Z,37.70
2023-06-17T15:06:54.634Z,37.70
2023-06-17T15:09:21.178Z,37.70
2023-06-17T15:11:47.689Z,37.70
2023-06-17T15:14:14.228Z,37.70
2023-06-17T15:16:40.852Z,37.80
2023-06-17T15:19:07.464Z,37.70
2023-06-17T15:21:33.980Z,37.70
2023-06-17T15:24:00.709Z,37.70
2023-06-17T15:26:27.253Z,37.70
2023-06-17T15:28:53.796Z,37.70
2023-06-17T15:31:20.331Z,37.70
2023-06-17T15:33:46.880Z,37.60
2023-06-17T15:36:13.410Z,37.70
2023-06-17T15:38:39.946Z,37.70
2023-06-17T15:41:06.459Z,37.70
2023-06-17T15:43:32.976Z,37.70
2023-06-17T15:45:59.483Z,37.70
2023-06-17T15:48:26.000Z,37.60
2023-06-17T15:50:52.501Z,37.70
2023-06-17T15:53:19.028Z,37.60
2023-06-17T15:55:45.542Z,37.60
2023-06-17T15:58:12.073Z,37.60
2023-06-17T16:00:38.575Z,37.60
2023-06-17T16:03:05.117Z,37.60
2023-06-17T16:05:31.648Z,37.60
2023-06-17T16:07:58.691Z,37.60
2023-06-17T16:10:25.204Z,37.60
2023-06-17T16:12:51.728Z,37.60
2023-06-17T16:15:18.219Z,37.60
2023-06-17T16:17:44.762Z,37.60
2023-06-17T16:20:11.402Z,37.60
2023-06-17T16:22:37.969Z,37.60
2023-06-17T16:25:05.777Z,37.60
2023-06-17T16:27:33.270Z,37.70
2023-06-17T16:29:59.943Z,37.70
2023-06-17T16:32:26.528Z,37.60
2023-06-17T16:34:53.064Z,37.70
2023-06-17T16:37:19.597Z,37.60
2023-06-17T16:39:46.113Z,37.60
2023-06-17T16:42:12.655Z,37.70
2023-06-17T16:44:39.188Z,37.60
2023-06-17T16:47:05.709Z,37.80
2023-06-17T16:49:32.221Z,37.70
2023-06-17T16:51:58.735Z,37.70
2023-06-17T16:54:25.273Z,37.70
2023-06-17T16:56:51.772Z,37.70
2023-06-17T16:59:18.288Z,37.70
2023-06-17T17:01:44.976Z,37.70
2023-06-17T17:04:11.599Z,37.70
2023-06-17T17:06:38.127Z,37.80
2023-06-17T17:09:04.650Z,37.80
2023-06-17T17:11:31.196Z,37.80
2023-06-17T17:13:57.700Z,37.80
2023-06-17T17:16:24.270Z,37.80
2023-06-17T17:18:52.740Z,37.80
2023-06-17T17:21:19.281Z,37.80
2023-06-17T17:23:45.823Z,37.80
2023-06-17T17:26:12.382Z,37.80
2023-06-17T17:28:38.903Z,37.80
2023-06-17T17:31:05.438Z,37.80
2023-06-17T17:33:31.960Z,37.80
2023-06-17T17:35:58.489Z,37.80
2023-06-17T17:38:25.039Z,37.90
2023-06-17T17:40:51.564Z,37.80
2023-06-17T17:43:18.084Z,37.80
2023-06-17T17:45:44.643Z,37.80
2023-06-17T17:48:11.190Z,37.90
2023-06-17T17:50:37.773Z,37.80
2023-06-17T17:53:04.731Z,37.90
2023-06-17T17:55:31.253Z,37.80
2023-06-17T17:57:57.772Z,37.80
2023-06-17T18:00:24.423Z,37.90
2023-06-17T18:02:51.084Z,37.80
2023-06-17T18:05:17.647Z,37.90
2023-06-17T18:07:44.178Z,37.90
2023-06-17T18:10:10.745Z,37.90
2023-06-17T18:12:37.333Z,37.90
2023-06-17T18:15:03.848Z,37.90
2023-06-17T18:17:30.463Z,37.90
2023-06-17T18:19:57.002Z,38.00
2023-06-17T18:22:23.538Z,37.90
2023-06-17T18:24:50.082Z,38.00
2023-06-17T18:27:31.047Z,38.00
2023-06-17T18:30:02.265Z,38.00
2023-06-17T18:32:28.829Z,38.00
2023-06-17T18:34:55.388Z,38.00
2023-06-17T18:37:21.916Z,38.00
2023-06-17T18:39:48.447Z,38.10
2023-06-17T18:42:14.978Z,38.10
2023-06-17T18:44:41.486Z,38.10
2023-06-17T18:47:08.124Z,38.10
2023-06-17T18:49:34.726Z,38.10
2023-06-17T18:52:01.255Z,38.10
2023-06-17T18:54:27.796Z,38.20
2023-06-17T18:56:54.371Z,38.20
2023-06-17T18:59:20.921Z,38.20
2023-06-17T19:01:47.603Z,38.20
2023-06-17T19:04:14.278Z,38.20
2023-06-17T19:06:40.822Z,38.20
2023-06-17T19:09:07.357Z,38.20
2023-06-17T19:11:33.885Z,38.20
2023-06-17T19:14:00.440Z,38.30
2023-06-17T19:16:26.981Z,38.30
2023-06-17T19:18:53.500Z,38.30
2023-06-17T19:21:20.000Z,38.30
2023-06-17T19:23:46.520Z,38.30
2023-06-17T19:26:13.030Z,38.30
2023-06-17T19:28:39.561Z,38.40
2023-06-17T19:31:06.101Z,38.40
2023-06-17T19:33:32.626Z,38.40
2023-06-17T19:35:59.141Z,38.40
2023-06-17T19:38:25.679Z,38.40
2023-06-17T19:40:52.219Z,38.40
2023-06-17T19:43:18.738Z,38.40
2023-06-17T19:45:45.307Z,38.40
2023-06-17T19:48:11.941Z,38.50
2023-06-17T19:50:38.554Z,38.40
2023-06-17T19:53:05.082Z,38.50
2023-06-17T19:55:31.631Z,38.50
2023-06-17T19:57:58.167Z,38.50
2023-06-17T20:00:24.893Z,38.50
2023-06-17T20:02:51.704Z,38.50
2023-06-17T20:05:18.268Z,38.50
2023-06-17T20:07:44.814Z,38.60
2023-06-17T20:10:11.362Z,38.50
2023-06-17T20:12:37.887Z,38.60
2023-06-17T20:15:04.418Z,38.60
2023-06-17T20:17:30.991Z,38.60
2023-06-17T20:19:57.506Z,38.70
2023-06-17T20:22:24.029Z,38.70
2023-06-17T20:24:50.557Z,38.70
2023-06-17T20:27:17.076Z,38.70
2023-06-17T20:29:43.592Z,38.70
2023-06-17T20:32:10.112Z,38.80
2023-06-17T20:34:36.675Z,38.80
2023-06-17T20:37:03.203Z,38.80
2023-06-17T20:39:29.709Z,38.90
2023-06-17T20:41:56.219Z,38.80
2023-06-17T20:44:22.757Z,38.90
2023-06-17T20:46:49.325Z,38.90
2023-06-17T20:49:15.874Z,38.90
2023-06-17T20:51:42.416Z,39.00
2023-06-17T20:54:08.936Z,39.00
2023-06-17T20:56:35.442Z,39.00
2023-06-17T20:59:01.952Z,39.00
2023-06-17T21:01:28.534Z,39.00
2023-06-17T21:03:55.412Z,39.10
2023-06-17T21:06:21.975Z,39.10
2023-06-17T21:08:48.507Z,39.10
2023-06-17T21:11:15.067Z,39.10
2023-06-17T21:13:41.592Z,39.10
2023-06-17T21:16:08.171Z,39.10
2023-06-17T21:18:34.757Z,39.30
2023-06-17T21:21:01.328Z,39.10
2023-06-17T21:23:27.842Z,39.30
2023-06-17T21:25:54.355Z,39.30
2023-06-17T21:28:20.882Z,39.30
2023-06-17T21:30:47.413Z,39.30
2023-06-17T21:33:13.955Z,39.30
2023-06-17T21:35:40.501Z,39.30
2023-06-17T21:38:07.002Z,39.20
2023-06-17T21:40:33.521Z,39.30
2023-06-17T21:43:00.060Z,39.40
2023-06-17T21:45:26.619Z,39.20
2023-06-17T21:47:53.205Z,39.30
2023-06-17T21:50:19.990Z,39.30
2023-06-17T21:52:46.777Z,39.40
2023-06-17T21:55:13.319Z,39.40
2023-06-17T21:57:39.859Z,39.40
2023-06-17T22:00:06.367Z,39.30
2023-06-17T22:02:32.944Z,39.30
2023-06-17T22:04:59.531Z,39.40
2023-06-17T22:07:26.055Z,39.40
2023-06-17T22:09:53.666Z,39.30
2023-06-17T22:12:20.213Z,39.40
2023-06-17T22:14:46.759Z,39.40
2023-06-17T22:17:13.305Z,39.40
2023-06-17T22:19:39.809Z,39.40
2023-06-17T22:22:06.329Z,39.50
2023-06-17T22:24:32.921Z,39.50
2023-06-17T22:26:59.500Z,39.50
2023-06-17T22:29:26.003Z,39.50
2023-06-17T22:31:52.537Z,39.60
2023-06-17T22:34:19.055Z,39.60
2023-06-17T22:36:45.583Z,39.50
2023-06-17T22:39:12.114Z,39.60
2023-06-17T22:41:38.657Z,39.60
2023-06-17T22:44:05.186Z,39.70
2023-06-17T22:46:31.720Z,39.60
2023-06-17T22:48:58.244Z,39.60
2023-06-17T22:51:24.815Z,39.60
2023-06-17T22:53:51.359Z,39.60
2023-06-17T22:56:17.876Z,39.70
2023-06-17T22:58:44.389Z,39.70
2023-06-17T23:01:10.963Z,39.80
2023-06-17T23:03:37.557Z,39.70
2023-06-17T23:06:04.084Z,39.80
2023-06-17T23:08:30.622Z,39.80
2023-06-17T23:10:57.164Z,39.90
2023-06-17T23:13:23.723Z,39.90
2023-06-17T23:15:53.005Z,40.00
2023-06-17T23:18:19.560Z,40.10
2023-06-17T23:20:46.087Z,40.00
2023-06-17T23:23:17.099Z,40.10
2023-06-17T23:25:43.650Z,40.20
2023-06-17T23:28:10.168Z,40.10
2023-06-17T23:30:36.700Z,40.00
2023-06-17T23:33:03.249Z,39.90
2023-06-17T23:35:29.790Z,40.00
2023-06-17T23:37:56.335Z,40.10
2023-06-17T23:40:23.124Z,40.10
2023-06-17T23:42:49.766Z,40.20
2023-06-17T23:45:16.392Z,40.30
2023-06-17T23:47:43.088Z,40.40
2023-06-17T23:50:09.653Z,40.40
2023-06-17T23:52:41.083Z,40.50
2023-06-17T23:55:07.714Z,40.50
2023-06-17T23:57:34.284Z,40.50
